Willow Ranch, California
Current Conditions -  °F | °C
As of 3:35 PM on Saturday 20 Dec 2014 (Local Time) from KLKV Reporting Station
Overcast Overcast  
Wind Chill: 30°   Ceiling: 1800
Heat Index: 39°   Visibility: 10mi
Dew Point: 36°   Wind: 18mph
Humidity: 87%   Direction: 170°S
Pressure: 30.01"   Gusts: 26mph
Location:  41.8546°N, 120.437°W
Report Text: KLKV 202335Z 17016G23KT 10SM OVC018 04/02 A3001 RMK AO1
Loading
Personal Weather Stations






























Interactive Weather Map New forecast layout! Learn more

10-Day Weather Forecast

Advertisements
Track Severe Weather on mobile